Архив погоды в Благовещенске

Метеограмма Благовещенск
Пятница, 22 Июня
Время местн. Темп Ветер Видим Явления Облачность нижн/средн/верх Атм. давл. Влжн Точка росы ВНГО R Сост. почвы Tg s
Напр Скр Прв ур.ст ур.м изм
09:00 +21.6° З,С-З 3 - 50 км - переменная облачность 732 746 -0.5 62% +14° - 0.6 Влажная (без луж) - -
06:00 +14.5° С-З 2 - 50 км - облачно 733 747 +0.1 85% +12° - - - - -
03:00 +14.9° З 2 - - небо без изменений {гроза, ливневые осадки} облачно 732 747 -1 87% +12.7° 1.5 км - - - -
00:00 +16.5° З 1 - - гроза без осадков {ливневые осадки} облачно 733 748 -0.4 82% +13.4° 1 км - - - -
Четверг, 21 Июня
Время местн. Темп Ветер Видим Явления Облачность нижн/средн/верх Атм. давл. Влжн Точка росы ВНГО R Сост. почвы Tg s
Напр Скр Прв ур.ст ур.м изм
21:00 +20.8° Ю-З 1 - 50 км - облачно с прояснениями 734 748 +0.1 59% +12.5° - 0 - - -
18:00 +26.3° З 2 - 50 км - преимущественно облачно 734 748 -0.6 35% +9.7° 1.5 км - - - -
15:00 +26.2° С-З 2 - 50 км - преимущественно облачно 734 749 -1.1 36% +9.9° 1.5 км - - - -
12:00 +24.2° С 2 - 50 км - переменная облачность 735 750 -0.8 41% +10.1° 1.5 км - - - -
09:00 +20° С-З 1 - 50 км - ясно 736 751 0 62% +12.6° более 2.5 км 0 Влажная (без луж) - -
06:00 +12.7° З,С-З 3 - более 50 км - переменная облачность 736 751 +0.3 87% +10.6° более 2.5 км - - - -
03:00 +11.7° З,С-З 3 - - - ясно 736 751 -0.2 92% +10.4° более 2.5 км - - - -
00:00 +13.2° З,С-З 3 - - - ясно 736 751 -0.1 88% +11.2° более 2.5 км - - - -
Среда, 20 Июня
Время местн. Темп Ветер Видим Явления Облачность нижн/средн/верх Атм. давл. Влжн Точка росы ВНГО R Сост. почвы Tg s
Напр Скр Прв ур.ст ур.м изм
21:00 +15.9° З 2 - более 50 км - переменная облачность 736 751 +0.5 77% +11.8° 1.5 км 0 - - -
18:00 +20.8° Ю-В 1 - более 50 км - переменная облачность 736 750 -0.2 53% +10.9° 1 км - - - -
15:00 +19.9° С,С-В 2 - более 50 км - облачно с прояснениями 736 750 -1.1 54% +10.2° 1 км - - - -
12:00 +19.1° С 3 - более 50 км - облачно с прояснениями 737 752 -0.5 52% +8.9° 1.5 км - - - -
09:00 +15.1° С 1 - 50 км - облачно с прояснениями 737 752 +0.2 66% +8.8° - 0 Влажная (без луж) - -
06:00 +11.4° С,С-В 1 - 50 км - облачно 737 752 +0.5 78% +7.7° 1.5 км - - - -
03:00 - +11.9° С-В 3 - - - - 737 752 +0.2 90% +10.3° - - - - -
00:00 +11.3° С-З 2 - - - переменная облачность 737 752 +0.4 90% +9.8° - - - - -
Вторник, 19 Июня
Время местн. Темп Ветер Видим Явления Облачность нижн/средн/верх Атм. давл. Влжн Точка росы ВНГО R Сост. почвы Tg s
Напр Скр Прв ур.ст ур.м изм
21:00 +15.5° С-В 2 - 20 км - переменная облачность 736 751 +1.3 75% +11.1° 1 км 0 - - -
18:00 +19.3° В,С-В 2 - 50 км - облачно 735 750 +1.1 59% +11° 1 км - - - -
15:00 +21.6° С 3 - более 50 км - преимущественно облачно 734 748 -0.2 54% +11.8° 1 км - - - -
12:00 +19.9° С 2 - 50 км - преимущественно облачно 734 749 +0.2 64% +12.9° 1 км - - - -
09:00 +16.5° С-З 5 10 50 км - преимущественно облачно 734 749 +0.2 68% +10.6° 1.5 км 6 Сырая (есть малые или большие лужи) - -
06:00 +11.9° З,С-З 3 - 50 км - облачно 734 749 +0.4 89% +10.1° - - - - -